createdAt,value
2023-04-08T00:01:45.970Z,17.30
2023-04-08T00:04:14.653Z,17.30
2023-04-08T00:06:42.717Z,17.30
2023-04-08T00:09:11.294Z,17.30
2023-04-08T00:11:39.116Z,17.30
2023-04-08T00:14:06.957Z,17.30
2023-04-08T00:16:35.018Z,17.30
2023-04-08T00:19:02.843Z,17.30
2023-04-08T00:21:31.705Z,17.30
2023-04-08T00:23:59.603Z,17.30
2023-04-08T00:26:27.719Z,17.30
2023-04-08T00:28:55.884Z,17.30
2023-04-08T00:31:26.734Z,17.30
2023-04-08T00:33:57.661Z,17.30
2023-04-08T00:36:27.845Z,17.20
2023-04-08T00:38:55.718Z,17.30
2023-04-08T00:41:24.620Z,17.30
2023-04-08T00:43:53.231Z,17.30
2023-04-08T00:46:24.122Z,17.20
2023-04-08T00:48:52.259Z,17.20
2023-04-08T00:51:20.217Z,17.30
2023-04-08T00:53:48.249Z,17.20
2023-04-08T00:56:19.897Z,17.20
2023-04-08T00:58:54.429Z,17.20
2023-04-08T01:01:22.843Z,17.20
2023-04-08T01:03:50.991Z,17.20
2023-04-08T01:06:19.470Z,17.20
2023-04-08T01:08:47.353Z,17.20
2023-04-08T01:11:17.664Z,17.20
2023-04-08T01:13:45.701Z,17.20
2023-04-08T01:16:13.652Z,17.20
2023-04-08T01:18:41.808Z,17.20
2023-04-08T01:21:11.549Z,17.20
2023-04-08T01:23:39.518Z,17.20
2023-04-08T01:26:07.417Z,17.20
2023-04-08T01:28:35.667Z,17.20
2023-04-08T01:31:06.186Z,17.20
2023-04-08T01:33:34.062Z,17.20
2023-04-08T01:36:02.354Z,17.20
2023-04-08T01:38:30.197Z,17.20
2023-04-08T01:40:58.046Z,17.20
2023-04-08T01:43:25.909Z,17.20
2023-04-08T01:45:58.319Z,17.20
2023-04-08T01:48:26.907Z,17.20
2023-04-08T01:50:54.756Z,17.20
2023-04-08T01:53:23.848Z,17.20
2023-04-08T01:55:51.664Z,17.20
2023-04-08T01:58:21.662Z,17.20
2023-04-08T02:00:49.680Z,17.20
2023-04-08T02:03:17.737Z,17.20
2023-04-08T02:05:45.849Z,17.20
2023-04-08T02:08:14.339Z,17.20
2023-04-08T02:10:42.196Z,17.20
2023-04-08T02:13:12.188Z,17.20
2023-04-08T02:15:40.129Z,17.20
2023-04-08T02:18:08.640Z,17.20
2023-04-08T02:20:36.922Z,17.20
2023-04-08T02:23:07.711Z,17.20
2023-04-08T02:25:36.142Z,17.20
2023-04-08T02:28:03.933Z,17.20
2023-04-08T02:30:33.859Z,17.20
2023-04-08T02:33:01.836Z,17.10
2023-04-08T02:35:29.966Z,17.20
2023-04-08T02:37:57.965Z,17.20
2023-04-08T02:40:25.889Z,17.20
2023-04-08T02:42:53.650Z,17.10
2023-04-08T02:45:21.632Z,17.10
2023-04-08T02:47:52.500Z,17.20
2023-04-08T02:50:23.406Z,17.20
2023-04-08T02:52:51.637Z,17.20
2023-04-08T02:55:19.421Z,17.10
2023-04-08T02:57:49.810Z,17.20
2023-04-08T03:00:18.004Z,17.10
2023-04-08T03:02:45.872Z,17.10
2023-04-08T03:05:13.873Z,17.10
2023-04-08T03:07:41.839Z,17.10
2023-04-08T03:10:09.616Z,17.10
2023-04-08T03:12:37.753Z,17.10
2023-04-08T03:15:08.588Z,17.10
2023-04-08T03:17:36.478Z,17.10
2023-04-08T03:20:05.227Z,17.10
2023-04-08T03:22:33.064Z,17.10
2023-04-08T03:25:00.940Z,17.10
2023-04-08T03:27:29.010Z,17.10
2023-04-08T03:30:00.110Z,17.10
2023-04-08T03:32:29.325Z,17.10
2023-04-08T03:34:57.112Z,17.10
2023-04-08T03:37:26.951Z,17.10
2023-04-08T03:39:55.720Z,17.10
2023-04-08T03:42:23.533Z,17.00
2023-04-08T03:44:51.414Z,17.00
2023-04-08T03:47:19.226Z,17.00
2023-04-08T03:49:47.113Z,17.00
2023-04-08T03:52:14.989Z,17.00
2023-04-08T03:54:42.741Z,17.00
2023-04-08T03:57:12.065Z,17.00
2023-04-08T03:59:41.188Z,17.00
2023-04-08T04:02:09.118Z,17.00
2023-04-08T04:04:37.179Z,17.00
2023-04-08T04:07:04.972Z,17.00
2023-04-08T04:09:32.720Z,17.00
2023-04-08T04:12:00.470Z,17.00
2023-04-08T04:14:28.267Z,17.00
2023-04-08T04:16:56.165Z,17.00
2023-04-08T04:19:23.902Z,17.00
2023-04-08T04:21:51.724Z,17.00
2023-04-08T04:24:19.529Z,17.00
2023-04-08T04:26:47.634Z,17.00
2023-04-08T04:29:15.508Z,17.00
2023-04-08T04:31:43.426Z,17.00
2023-04-08T04:34:11.308Z,17.00
2023-04-08T04:36:39.113Z,17.00
2023-04-08T04:39:06.927Z,17.00
2023-04-08T04:41:39.026Z,17.00
2023-04-08T04:44:06.974Z,17.10
2023-04-08T04:46:34.995Z,17.10
2023-04-08T04:49:02.965Z,17.20
2023-04-08T04:51:30.784Z,17.20
2023-04-08T04:53:59.025Z,17.30
2023-04-08T04:59:06.833Z,17.40
2023-04-08T05:01:34.702Z,17.40
2023-04-08T05:04:02.523Z,17.50
2023-04-08T05:06:30.327Z,17.50
2023-04-08T05:08:58.092Z,17.50
2023-04-08T05:11:26.238Z,17.60
2023-04-08T05:13:54.049Z,17.60
2023-04-08T05:16:21.984Z,17.60
2023-04-08T05:18:50.442Z,17.60
2023-04-08T05:21:18.634Z,17.60
2023-04-08T05:23:46.591Z,17.70
2023-04-08T05:26:16.312Z,17.80
2023-04-08T05:28:44.382Z,17.90
2023-04-08T05:31:12.528Z,18.10
2023-04-08T05:33:40.486Z,18.20
2023-04-08T05:36:08.262Z,18.30
2023-04-08T05:38:36.157Z,18.40
2023-04-08T05:41:03.954Z,18.50
2023-04-08T05:43:31.955Z,18.60
2023-04-08T05:45:59.770Z,18.70
2023-04-08T05:48:27.603Z,18.80
2023-04-08T05:50:55.418Z,18.90
2023-04-08T05:53:24.812Z,19.00
2023-04-08T05:55:52.581Z,19.00
2023-04-08T05:58:20.406Z,19.00
2023-04-08T06:00:48.223Z,19.00
2023-04-08T06:03:18.913Z,19.00
2023-04-08T06:05:48.227Z,18.90
2023-04-08T06:08:16.400Z,18.90
2023-04-08T06:10:44.224Z,18.90
2023-04-08T06:13:12.025Z,18.90
2023-04-08T06:15:39.821Z,18.90
2023-04-08T06:18:07.575Z,18.90
2023-04-08T06:20:36.022Z,18.90
2023-04-08T06:23:03.816Z,18.90
2023-04-08T06:25:31.633Z,18.90
2023-04-08T06:27:59.442Z,18.90
2023-04-08T06:30:27.349Z,18.90
2023-04-08T06:32:55.186Z,18.90
2023-04-08T06:35:25.077Z,18.90
2023-04-08T06:37:53.296Z,18.80
2023-04-08T06:40:21.376Z,18.80
2023-04-08T06:42:49.178Z,18.80
2023-04-08T06:45:17.157Z,18.80
2023-04-08T06:47:45.022Z,18.80
2023-04-08T06:50:12.916Z,18.70
2023-04-08T06:52:40.754Z,18.70
2023-04-08T06:55:08.599Z,18.60
2023-04-08T06:57:36.947Z,18.60
2023-04-08T07:00:04.783Z,18.60
2023-04-08T07:02:32.981Z,18.50
2023-04-08T07:05:00.827Z,18.50
2023-04-08T07:07:28.611Z,18.50
2023-04-08T07:09:56.486Z,18.40
2023-04-08T07:12:24.303Z,18.40
2023-04-08T07:14:52.221Z,18.40
2023-04-08T07:17:19.945Z,18.40
2023-04-08T07:19:47.746Z,18.40
2023-04-08T07:22:16.239Z,18.40
2023-04-08T07:24:49.634Z,18.50
2023-04-08T07:27:17.459Z,18.50
2023-04-08T07:29:45.309Z,18.50
2023-04-08T07:32:13.102Z,18.50
2023-04-08T07:34:41.258Z,18.60
2023-04-08T07:37:09.040Z,18.70
2023-04-08T07:39:36.831Z,18.70
2023-04-08T07:42:04.694Z,18.80
2023-04-08T07:44:32.560Z,18.80
2023-04-08T07:47:00.375Z,18.90
2023-04-08T07:49:28.195Z,18.90
2023-04-08T07:51:56.028Z,18.90
2023-04-08T07:54:23.834Z,18.90
2023-04-08T07:56:51.653Z,19.00
2023-04-08T07:59:19.642Z,19.00
2023-04-08T08:01:47.726Z,19.00
2023-04-08T08:04:15.836Z,19.00
2023-04-08T08:06:43.710Z,19.00
2023-04-08T08:09:11.550Z,19.00
2023-04-08T08:11:39.319Z,19.00
2023-04-08T08:14:08.080Z,18.90
2023-04-08T08:16:36.635Z,18.90
2023-04-08T08:19:06.124Z,18.90
2023-04-08T08:21:33.915Z,18.80
2023-04-08T08:24:01.822Z,18.70
2023-04-08T08:26:29.911Z,18.70
2023-04-08T08:28:57.734Z,18.70
2023-04-08T08:31:25.591Z,18.70
2023-04-08T08:33:53.507Z,18.60
2023-04-08T08:36:21.837Z,18.60
2023-04-08T08:38:49.674Z,18.60
2023-04-08T08:41:17.466Z,18.60
2023-04-08T08:43:45.504Z,18.60
2023-04-08T08:46:13.496Z,18.60
2023-04-08T08:48:41.473Z,18.60
2023-04-08T08:51:09.304Z,18.50
2023-04-08T08:53:37.085Z,18.50
2023-04-08T08:56:17.842Z,18.50
2023-04-08T08:58:47.829Z,18.50
2023-04-08T09:01:16.012Z,18.50
2023-04-08T09:03:44.062Z,18.50
2023-04-08T09:06:12.797Z,18.50
2023-04-08T09:08:40.641Z,18.40
2023-04-08T09:11:08.450Z,18.50
2023-04-08T09:13:36.283Z,18.50
2023-04-08T09:16:05.166Z,18.50
2023-04-08T09:18:33.311Z,18.50
2023-04-08T09:21:01.086Z,18.50
2023-04-08T09:23:28.911Z,18.40
2023-04-08T09:25:56.998Z,18.50
2023-04-08T09:28:24.776Z,18.40
2023-04-08T09:30:52.547Z,18.40
2023-04-08T09:33:20.344Z,18.40
2023-04-08T09:35:48.196Z,18.40
2023-04-08T09:38:16.529Z,18.40
2023-04-08T09:40:44.314Z,18.40
2023-04-08T09:43:12.244Z,18.30
2023-04-08T09:45:41.328Z,18.30
2023-04-08T09:48:09.138Z,18.40
2023-04-08T09:50:36.979Z,18.30
2023-04-08T09:53:04.820Z,18.30
2023-04-08T09:55:33.515Z,18.30
2023-04-08T09:58:01.419Z,18.30
2023-04-08T10:00:29.194Z,18.30
2023-04-08T10:02:57.481Z,18.30
2023-04-08T10:05:25.442Z,18.30
2023-04-08T10:07:53.268Z,18.30
2023-04-08T10:10:21.226Z,18.30
2023-04-08T10:12:49.073Z,18.30
2023-04-08T10:15:16.889Z,18.30
2023-04-08T10:17:44.723Z,18.30
2023-04-08T10:20:13.334Z,18.30
2023-04-08T10:22:41.121Z,18.20
2023-04-08T10:25:09.392Z,18.20
2023-04-08T10:27:37.267Z,18.30
2023-04-08T10:30:05.162Z,18.30
2023-04-08T10:32:33.064Z,18.30
2023-04-08T10:35:01.074Z,18.30
2023-04-08T10:37:28.953Z,18.30
2023-04-08T10:39:56.794Z,18.30
2023-04-08T10:42:26.215Z,18.30
2023-04-08T10:44:54.070Z,18.30
2023-04-08T10:47:21.920Z,18.20
2023-04-08T10:49:49.816Z,18.20
2023-04-08T10:52:18.264Z,18.20
2023-04-08T10:54:46.013Z,18.30
2023-04-08T10:57:13.891Z,18.30
2023-04-08T10:59:41.740Z,18.30
2023-04-08T11:02:09.778Z,18.30
2023-04-08T11:04:37.837Z,18.40
2023-04-08T11:07:06.004Z,18.40
2023-04-08T11:09:33.871Z,18.40
2023-04-08T11:12:02.028Z,18.40
2023-04-08T11:14:29.815Z,18.40
2023-04-08T11:16:57.685Z,18.40
2023-04-08T11:19:25.505Z,18.40
2023-04-08T11:21:53.267Z,18.50
2023-04-08T11:24:22.440Z,18.50
2023-04-08T11:26:50.347Z,18.50
2023-04-08T11:29:18.193Z,18.50
2023-04-08T11:31:47.311Z,18.50
2023-04-08T11:34:15.126Z,18.50
2023-04-08T11:36:42.840Z,18.50
2023-04-08T11:39:10.674Z,18.50
2023-04-08T11:41:39.487Z,18.60
2023-04-08T11:44:08.031Z,18.60
2023-04-08T11:46:36.442Z,18.60
2023-04-08T11:49:04.284Z,18.50
2023-04-08T11:51:32.308Z,18.50
2023-04-08T11:54:00.710Z,18.50
2023-04-08T11:56:30.516Z,18.50
2023-04-08T11:58:58.408Z,18.50
2023-04-08T12:01:26.325Z,18.50
2023-04-08T12:03:54.588Z,18.50
2023-04-08T12:06:23.489Z,18.50
2023-04-08T12:08:51.745Z,18.50
2023-04-08T12:11:20.233Z,18.60
2023-04-08T12:13:50.074Z,18.60
2023-04-08T12:16:18.511Z,18.60
2023-04-08T12:18:46.923Z,18.70
2023-04-08T12:21:14.724Z,18.70
2023-04-08T12:23:42.540Z,18.80
2023-04-08T12:26:10.341Z,18.90
2023-04-08T12:28:38.301Z,19.00
2023-04-08T12:31:06.190Z,19.10
2023-04-08T12:33:35.917Z,19.20
2023-04-08T12:36:03.888Z,19.20
2023-04-08T12:38:32.209Z,19.30
2023-04-08T12:41:00.053Z,19.50
2023-04-08T12:43:30.715Z,19.50
2023-04-08T12:45:58.565Z,19.50
2023-04-08T12:48:26.572Z,19.50
2023-04-08T12:50:54.402Z,19.60
2023-04-08T12:53:22.267Z,19.60
2023-04-08T12:55:50.272Z,19.70
2023-04-08T12:58:18.170Z,19.80
2023-04-08T13:00:46.822Z,19.80
2023-04-08T13:03:17.521Z,19.80
2023-04-08T13:05:45.447Z,19.90
2023-04-08T13:08:13.296Z,19.90
2023-04-08T13:10:41.163Z,19.90
2023-04-08T13:13:08.936Z,19.90
2023-04-08T13:15:37.001Z,19.90
2023-04-08T13:18:04.906Z,20.00
2023-04-08T13:20:33.719Z,20.00
2023-04-08T13:23:01.707Z,20.00
2023-04-08T13:25:29.484Z,20.00
2023-04-08T13:27:57.268Z,19.90
2023-04-08T13:30:25.141Z,19.90
2023-04-08T13:32:53.243Z,19.90
2023-04-08T13:35:21.133Z,19.90
2023-04-08T13:37:48.983Z,19.90
2023-04-08T13:40:16.786Z,19.90
2023-04-08T13:42:44.640Z,19.80
2023-04-08T13:45:12.504Z,19.80
2023-04-08T13:47:40.308Z,19.70
2023-04-08T13:50:08.115Z,19.70
2023-04-08T13:52:36.045Z,19.60
2023-04-08T13:55:04.121Z,19.50
2023-04-08T13:57:31.991Z,19.50
2023-04-08T13:59:59.816Z,19.40
2023-04-08T14:02:27.717Z,19.40
2023-04-08T14:04:55.531Z,19.30
2023-04-08T14:07:23.355Z,19.30
2023-04-08T14:09:51.410Z,19.30
2023-04-08T14:12:19.243Z,19.30
2023-04-08T14:14:47.171Z,19.30
2023-04-08T14:17:14.976Z,19.20
2023-04-08T14:19:42.988Z,19.20
2023-04-08T14:22:10.814Z,19.10
2023-04-08T14:24:38.699Z,19.10
2023-04-08T14:27:06.528Z,19.10
2023-04-08T14:29:34.341Z,19.10
2023-04-08T14:32:02.160Z,19.10
2023-04-08T14:34:29.961Z,19.10
2023-04-08T14:36:57.706Z,19.10
2023-04-08T14:39:25.573Z,19.10
2023-04-08T14:41:53.438Z,19.10
2023-04-08T14:44:21.233Z,19.20
2023-04-08T14:46:49.114Z,19.20
2023-04-08T14:49:16.924Z,19.20
2023-04-08T14:51:44.704Z,19.30
2023-04-08T14:54:14.177Z,19.30
2023-04-08T14:56:42.074Z,19.30
2023-04-08T14:59:09.875Z,19.40
2023-04-08T15:01:37.811Z,19.40
2023-04-08T15:04:05.799Z,19.50
2023-04-08T15:06:33.979Z,19.50
2023-04-08T15:09:02.011Z,19.50
2023-04-08T15:11:29.876Z,19.50
2023-04-08T15:13:57.906Z,19.50
2023-04-08T15:16:26.548Z,19.50
2023-04-08T15:18:55.077Z,19.50
2023-04-08T15:21:22.990Z,19.40
2023-04-08T15:23:50.837Z,19.40
2023-04-08T15:26:18.781Z,19.40
2023-04-08T15:28:46.651Z,19.30
2023-04-08T15:31:15.192Z,19.30
2023-04-08T15:33:43.933Z,19.20
2023-04-08T15:36:12.121Z,19.20
2023-04-08T15:38:40.055Z,19.20
2023-04-08T15:41:07.919Z,19.20
2023-04-08T15:43:36.053Z,19.10
2023-04-08T15:46:03.871Z,19.10
2023-04-08T15:48:32.809Z,19.10
2023-04-08T15:51:00.678Z,19.10
2023-04-08T15:53:28.659Z,19.00
2023-04-08T15:55:56.514Z,19.00
2023-04-08T15:58:24.349Z,19.00
2023-04-08T16:00:52.771Z,19.00
2023-04-08T16:03:20.738Z,18.90
2023-04-08T16:05:48.798Z,18.90
2023-04-08T16:08:16.580Z,18.90
2023-04-08T16:10:45.017Z,18.90
2023-04-08T16:13:12.821Z,18.80
2023-04-08T16:15:40.915Z,18.80
2023-04-08T16:18:11.903Z,18.80
2023-04-08T16:20:39.985Z,18.80
2023-04-08T16:23:07.838Z,18.80
2023-04-08T16:25:36.630Z,18.80
2023-04-08T16:28:04.580Z,18.80
2023-04-08T16:30:32.626Z,18.90
2023-04-08T16:33:00.817Z,18.90
2023-04-08T16:35:28.871Z,18.90
2023-04-08T16:37:56.843Z,19.00
2023-04-08T16:40:24.841Z,19.10
2023-04-08T16:42:52.651Z,19.10
2023-04-08T16:45:20.629Z,19.20
2023-04-08T16:47:48.523Z,19.20
2023-04-08T16:50:16.541Z,19.30
2023-04-08T16:52:49.490Z,19.30
2023-04-08T16:55:17.393Z,19.30
2023-04-08T16:57:45.272Z,19.30
2023-04-08T17:00:13.262Z,19.30
2023-04-08T17:02:41.642Z,19.30
2023-04-08T17:05:09.700Z,19.40
2023-04-08T17:07:37.543Z,19.40
2023-04-08T17:10:05.838Z,19.40
2023-04-08T17:12:34.384Z,19.30
2023-04-08T17:15:02.240Z,19.30
2023-04-08T17:17:30.309Z,19.30
2023-04-08T17:19:58.410Z,19.30
2023-04-08T17:22:26.260Z,19.30
2023-04-08T17:24:54.258Z,19.20
2023-04-08T17:27:22.133Z,19.20
2023-04-08T17:29:50.156Z,19.20
2023-04-08T17:32:18.041Z,19.10
2023-04-08T17:34:46.004Z,19.10
2023-04-08T17:37:13.824Z,19.00
2023-04-08T17:39:41.691Z,19.00
2023-04-08T17:42:09.722Z,19.00
2023-04-08T17:44:37.986Z,19.00
2023-04-08T17:47:06.010Z,18.90
2023-04-08T17:49:34.222Z,18.90
2023-04-08T17:52:02.118Z,18.90
2023-04-08T17:54:31.503Z,18.90
2023-04-08T17:56:59.831Z,18.80
2023-04-08T17:59:28.024Z,18.80
2023-04-08T18:01:55.961Z,18.80
2023-04-08T18:04:26.522Z,18.80
2023-04-08T18:06:54.403Z,18.80
2023-04-08T18:09:22.764Z,18.70
2023-04-08T18:11:50.878Z,18.70
2023-04-08T18:14:19.002Z,18.70
2023-04-08T18:16:47.112Z,18.70
2023-04-08T18:19:15.263Z,18.80
2023-04-08T18:21:43.915Z,18.80
2023-04-08T18:24:11.897Z,18.90
2023-04-08T18:26:39.855Z,19.00
2023-04-08T18:29:08.065Z,19.10
2023-04-08T18:31:38.450Z,19.10
2023-04-08T18:34:06.617Z,19.20
2023-04-08T18:36:34.436Z,19.30
2023-04-08T18:39:02.226Z,19.30
2023-04-08T18:41:30.470Z,19.30
2023-04-08T18:44:00.581Z,19.40
2023-04-08T18:46:28.548Z,19.40
2023-04-08T18:48:56.500Z,19.40
2023-04-08T18:51:24.547Z,19.40
2023-04-08T18:53:52.581Z,19.50
2023-04-08T18:56:21.301Z,19.50
2023-04-08T18:58:49.717Z,19.50
2023-04-08T19:01:17.759Z,19.50
2023-04-08T19:03:46.018Z,19.50
2023-04-08T19:06:14.559Z,19.50
2023-04-08T19:08:42.665Z,19.50
2023-04-08T19:11:10.452Z,19.40
2023-04-08T19:13:38.297Z,19.40
2023-04-08T19:16:06.192Z,19.40
2023-04-08T19:18:34.218Z,19.40
2023-04-08T19:21:02.448Z,19.40
2023-04-08T19:23:30.639Z,19.30
2023-04-08T19:25:58.489Z,19.30
2023-04-08T19:28:26.354Z,19.30
2023-04-08T19:30:54.147Z,19.20
2023-04-08T19:33:22.041Z,19.20
2023-04-08T19:35:49.804Z,19.20
2023-04-08T19:38:17.917Z,19.10
2023-04-08T19:40:45.862Z,19.10
2023-04-08T19:43:13.670Z,19.10
2023-04-08T19:45:41.449Z,19.10
2023-04-08T19:48:09.305Z,19.00
2023-04-08T19:50:37.381Z,19.00
2023-04-08T19:53:05.258Z,19.00
2023-04-08T19:55:33.373Z,18.90
2023-04-08T19:58:01.614Z,19.00
2023-04-08T20:00:29.455Z,18.90
2023-04-08T20:02:57.398Z,18.90
2023-04-08T20:05:25.281Z,18.90
2023-04-08T20:07:53.073Z,18.90
2023-04-08T20:10:21.159Z,18.80
2023-04-08T20:12:48.985Z,18.80
2023-04-08T20:15:24.648Z,18.80
2023-04-08T20:17:53.296Z,18.70
2023-04-08T20:20:21.103Z,18.70
2023-04-08T20:22:49.155Z,18.70
2023-04-08T20:25:17.359Z,18.70
2023-04-08T20:27:45.180Z,18.70
2023-04-08T20:30:13.136Z,18.60
2023-04-08T20:32:40.978Z,18.60
2023-04-08T20:35:08.805Z,18.60
2023-04-08T20:37:36.728Z,18.60
2023-04-08T20:40:04.898Z,18.60
2023-04-08T20:42:32.697Z,18.60
2023-04-08T20:45:00.510Z,18.50
2023-04-08T20:47:28.704Z,18.50
2023-04-08T20:49:56.616Z,18.50
2023-04-08T20:52:24.612Z,18.50
2023-04-08T20:54:52.467Z,18.50
2023-04-08T20:57:20.230Z,18.50
2023-04-08T20:59:48.271Z,18.40
2023-04-08T21:02:17.818Z,18.40
2023-04-08T21:04:46.202Z,18.40
2023-04-08T21:07:15.502Z,18.40
2023-04-08T21:09:43.316Z,18.40
2023-04-08T21:12:11.207Z,18.40
2023-04-08T21:14:39.117Z,18.30
2023-04-08T21:17:08.325Z,18.30
2023-04-08T21:19:36.101Z,18.30
2023-04-08T21:22:03.902Z,18.30
2023-04-08T21:24:32.674Z,18.30
2023-04-08T21:27:01.316Z,18.30
2023-04-08T21:29:29.080Z,18.20
2023-04-08T21:31:57.058Z,18.20
2023-04-08T21:34:24.838Z,18.20
2023-04-08T21:36:52.880Z,18.20
2023-04-08T21:39:20.670Z,18.20
2023-04-08T21:41:48.638Z,18.20
2023-04-08T21:44:16.625Z,18.20
2023-04-08T21:46:44.651Z,18.20
2023-04-08T21:49:13.833Z,18.10
2023-04-08T21:51:41.737Z,18.10
2023-04-08T21:54:09.628Z,18.10
2023-04-08T21:56:37.454Z,18.10
2023-04-08T21:59:05.440Z,18.10
2023-04-08T22:01:33.462Z,18.10
2023-04-08T22:04:01.577Z,18.10
2023-04-08T22:06:32.704Z,18.00
2023-04-08T22:09:00.913Z,18.10
2023-04-08T22:11:28.785Z,18.00
2023-04-08T22:13:56.539Z,18.00
2023-04-08T22:16:24.499Z,18.00
2023-04-08T22:18:52.418Z,18.00
2023-04-08T22:21:21.104Z,18.00
2023-04-08T22:23:48.913Z,18.00
2023-04-08T22:26:17.147Z,18.00
2023-04-08T22:28:44.961Z,18.00
2023-04-08T22:31:13.843Z,18.00
2023-04-08T22:33:41.626Z,18.00
2023-04-08T22:36:09.371Z,18.00
2023-04-08T22:38:37.259Z,17.90
2023-04-08T22:41:05.047Z,18.00
2023-04-08T22:43:32.899Z,17.90
2023-04-08T22:46:00.694Z,17.90
2023-04-08T22:48:28.495Z,17.90
2023-04-08T22:50:56.456Z,17.90
2023-04-08T22:53:24.220Z,17.90
2023-04-08T22:55:52.113Z,17.90
2023-04-08T22:58:19.990Z,17.90
2023-04-08T23:00:47.748Z,17.90
2023-04-08T23:03:15.877Z,17.90
2023-04-08T23:05:43.739Z,17.90
2023-04-08T23:08:11.687Z,17.90
2023-04-08T23:10:42.632Z,17.90
2023-04-08T23:13:10.586Z,17.80
2023-04-08T23:15:38.532Z,17.80
2023-04-08T23:18:06.559Z,17.80
2023-04-08T23:20:37.551Z,17.80
2023-04-08T23:23:05.497Z,17.80
2023-04-08T23:25:33.539Z,17.80
2023-04-08T23:28:01.719Z,17.80
2023-04-08T23:30:31.655Z,17.70
2023-04-08T23:32:59.582Z,17.80
2023-04-08T23:35:43.633Z,17.70
2023-04-08T23:38:11.548Z,17.70
2023-04-08T23:40:39.445Z,17.70
2023-04-08T23:43:34.315Z,17.70
2023-04-08T23:46:03.453Z,17.70
2023-04-08T23:48:31.288Z,17.70
2023-04-08T23:50:59.282Z,17.70
2023-04-08T23:53:27.225Z,17.70
2023-04-08T23:55:56.898Z,17.70
2023-04-08T23:58:24.809Z,17.70
